カンクン の空港の天気 - METARとTAF

カンクン国際空港 ( MMUN / CUN ) - メキシコ キンタナ・ロー州カンクン
飛行場実況気象(Metar)
観測時間07/16 00:44 CDT (07/16 05:44 UTC)
風向・風速東南東 2m/s
視程10km以上
天気現象
全天の4割程度の雲 雲底高度 460m
気温27℃
湿度89%
気圧1017.6hPa
METARMMUN 160544Z 12003KT 7SM SCT015 27/25 A3005 RMK SLP176 52002 900 8/500 HZY
過去の天気等 Google飛行場航空写真 Wunderground天気予報

過去48時間のMETAR

飛行場予報(TAF)
発表時間: 7/15 23:48 CDT (7/16 04:48 UTC)
予報対象時間: 16日1時 CDT ~ 17日7時 CDT
風向・風速東 2m/s
視程10km以上
全天の4割程度の雲 雲底高度 460m
16日13時 CDT から
風向・風速東南東 5m/s
視程10km以上
全天の4割程度の雲 雲底高度 610m
全天の4割程度の雲 雲底高度 7620m
16日16時 CDT ~ 16日20時 CDT に一時的に
全天の4割程度の雲 雲底高度 2440m
全天の8割程度の雲 雲底高度 7620m
17日2時 CDT から
風向・風速東 5m/s
視程10km以上
全天の4割程度の雲 雲底高度 2740m
全天の4割程度の雲 雲底高度 7620m
TAF MMUN 160448Z 1606/1712 10004KT P6SM SCT015 TX32/1619Z TN26/1612Z
FM161800 12010KT P6SM SCT020 SCT250
TEMPO 1621/1701 SCT080 BKN250
FM170700 09010KT P6SM SCT090 SCT250